createdAt,value
2022-08-12T00:00:19.989Z,4.20
2022-08-12T00:03:05.749Z,5.87
2022-08-12T00:06:04.499Z,4.07
2022-08-12T00:08:53.975Z,4.57
2022-08-12T00:11:40.157Z,4.07
2022-08-12T00:14:26.150Z,4.37
2022-08-12T00:17:12.210Z,3.97
2022-08-12T00:19:57.664Z,6.23
2022-08-12T00:22:43.399Z,4.17
2022-08-12T00:26:01.392Z,4.53
2022-08-12T00:28:35.886Z,3.90
2022-08-12T00:31:21.601Z,5.63
2022-08-12T00:34:07.300Z,4.00
2022-08-12T00:36:52.802Z,5.27
2022-08-12T00:39:39.057Z,4.20
2022-08-12T00:42:11.904Z,4.60
2022-08-12T00:44:44.682Z,6.03
2022-08-12T00:47:24.678Z,5.10
2022-08-12T00:49:55.827Z,6.83
2022-08-12T00:52:24.946Z,5.47
2022-08-12T00:54:54.964Z,4.87
2022-08-12T00:57:26.769Z,4.80
2022-08-12T00:59:57.026Z,4.97
2022-08-12T01:02:27.817Z,4.80
2022-08-12T01:05:15.580Z,7.10
2022-08-12T01:08:02.400Z,5.27
2022-08-12T01:10:50.948Z,6.00
2022-08-12T01:13:22.224Z,7.63
2022-08-12T01:15:53.420Z,5.17
2022-08-12T01:18:23.473Z,5.53
2022-08-12T01:21:04.858Z,5.30
2022-08-12T01:24:29.924Z,7.50
2022-08-12T01:26:56.597Z,4.70
2022-08-12T01:29:32.552Z,6.93
2022-08-12T01:32:08.626Z,4.67
2022-08-12T01:34:38.919Z,4.87
2022-08-12T01:37:09.749Z,4.97
2022-08-12T01:40:35.179Z,6.27
2022-08-12T01:42:47.047Z,6.67
2022-08-12T01:45:17.626Z,6.10
2022-08-12T01:47:57.480Z,6.57
2022-08-12T01:50:33.344Z,5.30
2022-08-12T01:53:08.287Z,4.80
2022-08-12T01:55:39.132Z,5.23
2022-08-12T01:58:26.878Z,5.23
2022-08-12T02:00:59.348Z,5.33
2022-08-12T02:04:03.237Z,6.70
2022-08-12T02:06:54.990Z,4.87
2022-08-12T02:10:01.364Z,7.60
2022-08-12T02:12:43.444Z,5.47
2022-08-12T02:15:26.008Z,6.80
2022-08-12T02:18:04.907Z,6.13
2022-08-12T02:20:51.273Z,6.47
2022-08-12T02:23:25.645Z,5.70
2022-08-12T02:25:57.106Z,4.77
2022-08-12T02:28:26.120Z,5.33
2022-08-12T02:30:56.259Z,9.10
2022-08-12T02:33:25.582Z,6.70
2022-08-12T02:35:55.583Z,6.07
2022-08-12T02:38:27.496Z,6.40
2022-08-12T02:40:58.762Z,9.30
2022-08-12T02:43:32.769Z,9.23
2022-08-12T02:46:10.472Z,6.50
2022-08-12T02:48:52.130Z,6.17
2022-08-12T02:51:23.937Z,8.13
2022-08-12T02:54:05.026Z,6.10
2022-08-12T02:56:38.688Z,5.27
2022-08-12T02:59:12.261Z,5.00
2022-08-12T03:01:48.467Z,7.70
2022-08-12T03:04:31.860Z,6.53
2022-08-12T03:07:10.540Z,6.07
2022-08-12T03:10:04.584Z,6.53
2022-08-12T03:12:48.968Z,5.17
2022-08-12T03:15:22.105Z,5.27
2022-08-12T03:18:27.058Z,6.17
2022-08-12T03:20:45.583Z,6.90
2022-08-12T03:23:23.102Z,7.03
2022-08-12T03:26:00.240Z,8.30
2022-08-12T03:28:47.930Z,6.07
2022-08-12T03:31:16.813Z,5.90
2022-08-12T03:34:02.408Z,6.77
2022-08-12T03:36:33.630Z,7.40
2022-08-12T03:39:35.359Z,7.00
2022-08-12T03:42:13.319Z,8.47
2022-08-12T03:45:04.589Z,5.93
2022-08-12T03:47:53.909Z,9.97
2022-08-12T03:50:41.156Z,6.93
2022-08-12T03:53:28.083Z,9.37
2022-08-12T03:56:13.734Z,6.37
2022-08-12T03:58:59.932Z,6.70
2022-08-12T04:01:28.362Z,6.97
2022-08-12T04:03:57.749Z,8.47
2022-08-12T04:06:34.917Z,10.57
2022-08-12T04:09:14.814Z,7.23
2022-08-12T04:12:02.970Z,8.00
2022-08-12T04:14:31.318Z,6.57
2022-08-12T04:16:59.650Z,8.23
2022-08-12T04:19:28.953Z,7.97
2022-08-12T04:22:02.358Z,8.27
2022-08-12T04:24:35.357Z,7.40
2022-08-12T04:27:05.593Z,9.43
2022-08-12T04:30:32.968Z,8.90
2022-08-12T04:32:23.146Z,8.57
2022-08-12T04:34:52.287Z,9.63
2022-08-12T04:37:21.919Z,14.10
2022-08-12T04:39:51.049Z,8.50
2022-08-12T04:42:20.213Z,9.53
2022-08-12T04:44:48.569Z,10.30
2022-08-12T04:47:17.999Z,11.87
2022-08-12T04:49:48.332Z,11.07
2022-08-12T04:52:16.863Z,10.27
2022-08-12T04:54:47.781Z,7.93
2022-08-12T04:57:16.090Z,11.03
2022-08-12T04:59:48.259Z,9.07
2022-08-12T05:02:22.117Z,11.20
2022-08-12T05:04:52.812Z,9.17
2022-08-12T05:07:21.165Z,9.60
2022-08-12T05:09:59.804Z,11.70
2022-08-12T05:12:36.682Z,11.87
2022-08-12T05:15:19.121Z,8.47
2022-08-12T05:17:55.767Z,9.13
2022-08-12T05:20:26.240Z,10.67
2022-08-12T05:23:12.713Z,8.90
2022-08-12T05:25:44.240Z,7.83
2022-08-12T05:28:14.165Z,11.43
2022-08-12T05:30:44.674Z,12.27
2022-08-12T05:33:15.708Z,9.20
2022-08-12T05:35:45.656Z,10.63
2022-08-12T05:38:34.258Z,8.97
2022-08-12T05:41:06.334Z,9.33
2022-08-12T05:43:35.461Z,11.33
2022-08-12T05:46:03.541Z,9.63
2022-08-12T05:48:32.550Z,14.03
2022-08-12T05:51:00.711Z,11.70
2022-08-12T05:53:28.907Z,11.80
2022-08-12T05:55:57.065Z,9.70
2022-08-12T05:58:26.639Z,10.20
2022-08-12T06:00:56.883Z,11.30
2022-08-12T06:03:26.073Z,8.40
2022-08-12T06:05:56.273Z,10.43
2022-08-12T06:08:25.799Z,10.07
2022-08-12T06:10:54.375Z,12.77
2022-08-12T06:13:28.260Z,10.17
2022-08-12T06:16:14.584Z,12.97
2022-08-12T06:18:43.859Z,8.80
2022-08-12T06:21:14.268Z,9.70
2022-08-12T06:23:43.046Z,9.90
2022-08-12T06:26:13.141Z,15.00
2022-08-12T06:28:42.142Z,12.07
2022-08-12T06:31:25.697Z,7.77
2022-08-12T06:34:52.766Z,8.27
2022-08-12T06:36:44.311Z,5.90
2022-08-12T06:39:14.604Z,6.37
2022-08-12T06:42:04.877Z,6.00
2022-08-12T06:44:50.700Z,8.00
2022-08-12T06:47:22.159Z,7.20
2022-08-12T06:49:51.473Z,6.80
2022-08-12T06:52:21.660Z,5.67
2022-08-12T06:54:49.925Z,7.77
2022-08-12T06:58:04.477Z,6.90
2022-08-12T07:00:09.011Z,8.67
2022-08-12T07:02:38.604Z,6.33
2022-08-12T07:05:07.334Z,9.23
2022-08-12T07:07:39.792Z,7.73
2022-08-12T07:10:08.738Z,7.73
2022-08-12T07:12:37.189Z,7.33
2022-08-12T07:15:06.290Z,8.07
2022-08-12T07:17:37.757Z,9.50
2022-08-12T07:20:29.486Z,8.67
2022-08-12T07:23:00.658Z,7.50
2022-08-12T07:25:40.724Z,9.03
2022-08-12T07:28:16.302Z,7.27
2022-08-12T07:30:46.084Z,9.27
2022-08-12T07:33:16.884Z,8.47
2022-08-12T07:35:48.189Z,9.70
2022-08-12T07:38:29.058Z,7.23
2022-08-12T07:41:03.247Z,8.97
2022-08-12T07:43:35.509Z,8.80
2022-08-12T07:46:05.739Z,11.03
2022-08-12T07:48:38.249Z,7.93
2022-08-12T07:51:08.519Z,6.67
2022-08-12T07:53:51.989Z,8.03
2022-08-12T07:56:27.829Z,7.03
2022-08-12T07:58:59.155Z,6.73
2022-08-12T08:01:28.513Z,5.13
2022-08-12T08:04:18.823Z,6.27
2022-08-12T08:06:51.213Z,7.03
2022-08-12T08:09:22.393Z,7.37
2022-08-12T08:12:08.880Z,5.90
2022-08-12T08:14:37.414Z,3.63
2022-08-12T08:17:06.586Z,6.07
2022-08-12T08:20:01.823Z,4.50
2022-08-12T08:22:40.908Z,3.47
2022-08-12T08:25:35.287Z,5.23
2022-08-12T08:28:01.139Z,4.07
2022-08-12T08:30:30.444Z,4.10
2022-08-12T08:32:58.650Z,5.83
2022-08-12T08:35:32.828Z,7.10
2022-08-12T08:38:32.326Z,4.70
2022-08-12T08:42:15.895Z,4.60
2022-08-12T08:44:11.312Z,4.13
2022-08-12T08:46:40.157Z,4.60
2022-08-12T08:49:08.672Z,4.70
2022-08-12T08:51:37.808Z,4.33
2022-08-12T08:54:08.725Z,4.33
2022-08-12T08:56:44.010Z,4.73
2022-08-12T08:59:13.179Z,4.50
2022-08-12T09:01:44.398Z,5.23
2022-08-12T09:05:11.778Z,4.70
2022-08-12T09:07:17.118Z,4.03
2022-08-12T09:10:02.584Z,5.80
2022-08-12T09:15:41.592Z,3.80
2022-08-12T09:18:11.203Z,5.87
2022-08-12T09:20:42.544Z,4.70
2022-08-12T09:26:04.009Z,6.70
2022-08-12T09:28:37.149Z,4.40
2022-08-12T09:32:04.311Z,3.60
2022-08-12T09:34:27.909Z,4.80
2022-08-12T09:36:57.959Z,6.63
2022-08-12T09:40:05.757Z,7.20
2022-08-12T09:42:45.735Z,7.63
2022-08-12T09:46:11.050Z,5.00
2022-08-12T09:48:20.471Z,3.33
2022-08-12T09:50:55.628Z,8.27
2022-08-12T09:53:29.486Z,4.77
2022-08-12T09:56:58.210Z,5.10
2022-08-12T09:58:59.584Z,4.07
2022-08-12T10:01:34.651Z,4.20
2022-08-12T10:04:04.886Z,4.83
2022-08-12T10:06:36.051Z,5.30
2022-08-12T10:09:08.145Z,4.20
2022-08-12T10:12:11.589Z,5.40
2022-08-12T10:14:50.593Z,5.67
2022-08-12T10:17:23.499Z,5.67
2022-08-12T10:19:53.122Z,3.87
2022-08-12T10:22:36.722Z,3.70
2022-08-12T10:26:25.734Z,4.73
2022-08-12T10:28:33.509Z,4.30
2022-08-12T10:31:05.026Z,6.50
2022-08-12T10:33:54.953Z,4.77
2022-08-12T10:36:40.155Z,3.60
2022-08-12T10:40:00.731Z,5.87
2022-08-12T10:42:29.058Z,3.37
2022-08-12T10:45:01.175Z,4.67
2022-08-12T10:48:07.055Z,3.87
2022-08-12T10:50:29.684Z,5.67
2022-08-12T10:53:09.602Z,5.60
2022-08-12T10:55:37.737Z,3.77
2022-08-12T10:58:27.821Z,3.73
2022-08-12T11:01:48.831Z,4.73
2022-08-12T11:04:26.006Z,4.93
2022-08-12T11:07:06.647Z,3.97
2022-08-12T11:09:55.926Z,4.13
2022-08-12T11:12:55.066Z,3.30
2022-08-12T11:15:00.531Z,3.50
2022-08-12T11:17:52.477Z,3.67
2022-08-12T11:20:24.526Z,4.53
2022-08-12T11:23:03.964Z,4.30
2022-08-12T11:25:57.592Z,6.47
2022-08-12T11:28:34.843Z,4.40
2022-08-12T11:31:04.231Z,4.70
2022-08-12T11:34:06.678Z,4.13
2022-08-12T11:36:22.553Z,4.03
2022-08-12T11:38:51.363Z,3.80
2022-08-12T11:41:28.084Z,4.30
2022-08-12T11:44:12.647Z,4.83
2022-08-12T11:46:50.901Z,4.97
2022-08-12T11:49:31.579Z,3.80
2022-08-12T11:52:03.479Z,5.10
2022-08-12T11:54:32.254Z,3.80
2022-08-12T11:57:02.973Z,4.73
2022-08-12T12:02:38.497Z,4.43
2022-08-12T12:05:07.718Z,4.50
2022-08-12T12:08:38.417Z,4.30
2022-08-12T12:10:27.705Z,5.55
2022-08-12T12:12:55.795Z,4.03
2022-08-12T12:15:25.430Z,3.88
2022-08-12T12:18:22.458Z,4.03
2022-08-12T12:21:01.082Z,3.90
2022-08-12T12:23:36.202Z,3.88
2022-08-12T12:26:08.099Z,4.20
2022-08-12T12:28:41.506Z,4.20
2022-08-12T12:32:08.994Z,3.93
2022-08-12T12:34:12.405Z,3.60
2022-08-12T12:37:00.946Z,4.22
2022-08-12T12:39:54.652Z,4.65
2022-08-12T12:42:43.643Z,5.47
2022-08-12T12:45:19.078Z,3.60
2022-08-12T12:47:55.934Z,3.90
2022-08-12T12:50:35.347Z,5.43
2022-08-12T12:53:04.975Z,4.00
2022-08-12T12:55:35.975Z,6.27
2022-08-12T12:58:04.892Z,3.77
2022-08-12T13:00:33.919Z,4.20
2022-08-12T13:03:02.187Z,3.70
2022-08-12T13:05:42.173Z,4.50
2022-08-12T13:08:28.429Z,4.40
2022-08-12T13:11:07.721Z,3.90
2022-08-12T13:14:08.704Z,4.20
2022-08-12T13:16:29.370Z,4.03
2022-08-12T13:18:58.360Z,5.73
2022-08-12T13:21:36.666Z,4.57
2022-08-12T13:24:10.081Z,3.60
2022-08-12T13:26:40.727Z,4.03
2022-08-12T13:29:11.534Z,4.53
2022-08-12T13:31:46.500Z,3.83
2022-08-12T13:34:34.278Z,3.93
2022-08-12T13:37:09.183Z,4.13
2022-08-12T13:39:38.533Z,3.90
2022-08-12T13:42:13.570Z,4.53
2022-08-12T13:44:42.159Z,4.13
2022-08-12T13:47:19.537Z,3.90
2022-08-12T13:49:54.017Z,4.67
2022-08-12T13:52:24.171Z,4.87
2022-08-12T13:54:54.179Z,3.80
2022-08-12T13:57:46.949Z,3.90
2022-08-12T14:00:16.689Z,4.33
2022-08-12T14:02:44.971Z,3.40
2022-08-12T14:05:31.510Z,3.70
2022-08-12T14:08:06.117Z,4.10
2022-08-12T14:10:37.804Z,3.50
2022-08-12T14:14:02.540Z,3.50
2022-08-12T14:16:02.447Z,3.90
2022-08-12T14:18:33.096Z,3.70
2022-08-12T14:21:04.194Z,3.33
2022-08-12T14:24:05.129Z,3.73
2022-08-12T14:26:25.075Z,3.63
2022-08-12T14:29:02.086Z,3.70
2022-08-12T14:31:31.926Z,3.57
2022-08-12T14:34:04.779Z,4.20
2022-08-12T14:36:34.046Z,3.63
2022-08-12T14:39:06.517Z,3.97
2022-08-12T14:41:36.584Z,4.40
2022-08-12T14:44:59.389Z,3.10
2022-08-12T14:46:56.976Z,3.77
2022-08-12T14:50:33.417Z,6.27
2022-08-12T14:53:26.160Z,6.77
2022-08-12T14:58:00.721Z,3.80
2022-08-12T15:00:50.959Z,3.77
2022-08-12T15:03:23.331Z,3.40
2022-08-12T15:06:05.983Z,3.50
2022-08-12T15:08:41.155Z,3.73
2022-08-12T15:11:13.618Z,3.70
2022-08-12T15:13:45.483Z,3.80
2022-08-12T15:16:18.921Z,3.53
2022-08-12T15:18:55.111Z,4.23
2022-08-12T15:21:25.636Z,5.27
2022-08-12T15:24:13.698Z,3.10
2022-08-12T15:26:45.523Z,5.70
2022-08-12T15:29:14.835Z,4.03
2022-08-12T15:32:01.911Z,2.97
2022-08-12T15:34:33.903Z,3.53
2022-08-12T15:37:02.129Z,3.27
2022-08-12T15:39:30.226Z,3.93
2022-08-12T15:42:03.107Z,3.70
2022-08-12T15:44:38.191Z,3.80
2022-08-12T15:47:16.330Z,3.47
2022-08-12T15:49:59.625Z,5.10
2022-08-12T15:52:30.755Z,3.80
2022-08-12T15:55:05.127Z,4.90
2022-08-12T15:57:34.671Z,4.33
2022-08-12T16:00:07.494Z,3.57
2022-08-12T16:02:52.710Z,3.53
2022-08-12T16:06:12.663Z,3.30
2022-08-12T16:08:18.666Z,4.20
2022-08-12T16:10:53.124Z,3.47
2022-08-12T16:13:32.314Z,4.37
2022-08-12T16:16:12.265Z,3.87
2022-08-12T16:18:59.523Z,6.10
2022-08-12T16:21:52.531Z,3.40
2022-08-12T16:24:19.740Z,6.43
2022-08-12T16:26:51.583Z,5.93
2022-08-12T16:29:26.514Z,4.17
2022-08-12T16:32:07.485Z,5.13
2022-08-12T16:34:42.531Z,6.90
2022-08-12T16:38:05.012Z,4.50
2022-08-12T16:40:12.973Z,8.77
2022-08-12T16:42:53.624Z,4.17
2022-08-12T16:45:32.284Z,5.63
2022-08-12T16:48:35.277Z,6.27
2022-08-12T16:51:09.284Z,7.03
2022-08-12T16:53:44.057Z,6.50
2022-08-12T16:56:16.942Z,6.13
2022-08-12T16:58:47.245Z,6.67
2022-08-12T17:01:16.626Z,9.97
2022-08-12T17:03:51.974Z,7.50
2022-08-12T17:06:27.460Z,4.30
2022-08-12T17:09:02.758Z,6.93
2022-08-12T17:11:31.682Z,6.00
2022-08-12T17:14:01.742Z,5.67
2022-08-12T17:16:30.541Z,4.33
2022-08-12T17:19:03.198Z,4.30
2022-08-12T17:21:40.916Z,4.80
2022-08-12T17:24:30.039Z,5.93
2022-08-12T17:27:00.040Z,4.90
2022-08-12T17:30:00.245Z,4.57
2022-08-12T17:32:20.690Z,6.03
2022-08-12T17:35:14.202Z,8.33
2022-08-12T17:37:44.760Z,6.30
2022-08-12T17:40:19.375Z,7.47
2022-08-12T17:43:52.020Z,6.60
2022-08-12T17:45:54.134Z,8.33
2022-08-12T17:48:22.452Z,5.30
2022-08-12T17:51:07.137Z,7.87
2022-08-12T17:54:05.955Z,7.63
2022-08-12T17:56:31.974Z,7.53
2022-08-12T17:59:01.489Z,8.27
2022-08-12T18:01:34.718Z,5.27
2022-08-12T18:04:20.454Z,7.43
2022-08-12T18:06:50.962Z,8.80
2022-08-12T18:09:35.988Z,8.70
2022-08-12T18:12:24.487Z,12.70
2022-08-12T18:14:58.848Z,6.73
2022-08-12T18:17:27.473Z,6.50
2022-08-12T18:20:06.134Z,6.43
2022-08-12T18:22:40.961Z,6.03
2022-08-12T18:25:37.804Z,6.53
2022-08-12T18:28:16.462Z,6.70
2022-08-12T18:30:52.588Z,9.43
2022-08-12T18:33:25.497Z,7.70
2022-08-12T18:35:56.833Z,7.70
2022-08-12T18:38:27.035Z,7.57
2022-08-12T18:41:20.908Z,6.60
2022-08-12T18:43:59.128Z,10.13
2022-08-12T18:46:33.371Z,6.57
2022-08-12T18:49:17.170Z,9.07
2022-08-12T18:51:55.546Z,6.20
2022-08-12T18:54:32.296Z,9.40
2022-08-12T18:57:07.301Z,12.87
2022-08-12T19:00:01.273Z,7.77
2022-08-12T19:02:33.000Z,5.97
2022-08-12T19:05:09.506Z,12.90
2022-08-12T19:08:00.378Z,6.80
2022-08-12T19:10:31.936Z,7.37
2022-08-12T19:13:24.624Z,10.10
2022-08-12T19:15:57.468Z,7.33
2022-08-12T19:18:30.159Z,10.47
2022-08-12T19:21:11.620Z,6.00
2022-08-12T19:23:44.032Z,8.30
2022-08-12T19:26:12.474Z,8.47
2022-08-12T19:28:43.459Z,6.97
2022-08-12T19:31:56.660Z,9.97
2022-08-12T19:34:56.309Z,10.77
2022-08-12T19:37:20.320Z,10.30
2022-08-12T19:40:08.100Z,8.20
2022-08-12T19:42:44.304Z,10.03
2022-08-12T19:45:19.114Z,9.17
2022-08-12T19:47:50.355Z,21.00
2022-08-12T19:50:20.331Z,9.40
2022-08-12T19:52:51.151Z,10.33
2022-08-12T19:55:21.808Z,9.23
2022-08-12T19:58:02.894Z,8.87
2022-08-12T20:00:36.079Z,16.47
2022-08-12T20:03:06.434Z,11.80
2022-08-12T20:06:06.840Z,8.57
2022-08-12T20:08:31.409Z,11.90
2022-08-12T20:12:09.617Z,10.47
2022-08-12T20:14:00.283Z,11.23
2022-08-12T20:16:56.417Z,14.63
2022-08-12T20:19:28.636Z,8.83
2022-08-12T20:22:16.744Z,15.40
2022-08-12T20:24:55.411Z,8.67
2022-08-12T20:27:29.422Z,12.10
2022-08-12T20:30:15.177Z,9.30
2022-08-12T20:32:57.026Z,10.13
2022-08-12T20:36:06.883Z,11.43
2022-08-12T20:38:26.556Z,7.57
2022-08-12T20:40:56.165Z,7.17
2022-08-12T20:43:28.247Z,8.87
2022-08-12T20:46:00.272Z,10.73
2022-08-12T20:48:29.927Z,8.87
2022-08-12T20:51:04.342Z,12.40
2022-08-12T20:53:58.514Z,9.13
2022-08-12T20:56:31.220Z,8.87
2022-08-12T20:59:01.422Z,6.37
2022-08-12T21:01:46.125Z,7.03
2022-08-12T21:04:36.205Z,9.97
2022-08-12T21:07:09.501Z,8.93
2022-08-12T21:09:42.759Z,12.57
2022-08-12T21:12:27.549Z,7.50
2022-08-12T21:15:23.860Z,9.93
2022-08-12T21:18:11.568Z,6.30
2022-08-12T21:20:52.874Z,9.47
2022-08-12T21:23:22.797Z,6.67
2022-08-12T21:25:52.654Z,9.40
2022-08-12T21:28:27.414Z,5.70
2022-08-12T21:32:35.237Z,7.80
2022-08-12T21:34:06.485Z,7.00
2022-08-12T21:36:35.605Z,10.13
2022-08-12T21:39:18.544Z,8.77
2022-08-12T21:41:50.910Z,9.23
2022-08-12T21:44:24.244Z,7.50
2022-08-12T21:47:18.281Z,9.50
2022-08-12T21:50:06.894Z,8.73
2022-08-12T21:52:40.827Z,8.10
2022-08-12T21:55:18.762Z,6.67
2022-08-12T21:57:54.123Z,6.27
2022-08-12T22:00:35.056Z,7.07
2022-08-12T22:04:01.699Z,9.17
2022-08-12T22:06:30.502Z,10.27
2022-08-12T22:09:16.976Z,9.57
2022-08-12T22:11:49.335Z,7.03
2022-08-12T22:14:28.749Z,6.63
2022-08-12T22:16:58.746Z,12.77
2022-08-12T22:19:28.909Z,6.27
2022-08-12T22:22:04.758Z,6.90
2022-08-12T22:24:34.839Z,7.90
2022-08-12T22:27:08.056Z,6.80
2022-08-12T22:30:08.647Z,6.37
2022-08-12T22:32:41.811Z,8.07
2022-08-12T22:35:29.342Z,7.57
2022-08-12T22:38:10.853Z,6.73
2022-08-12T22:40:41.162Z,8.30
2022-08-12T22:43:29.576Z,9.03
2022-08-12T22:46:15.210Z,7.73
2022-08-12T22:48:50.192Z,12.67
2022-08-12T22:51:22.366Z,6.93
2022-08-12T22:53:54.908Z,10.60
2022-08-12T22:56:30.758Z,6.47
2022-08-12T22:59:02.692Z,6.43
2022-08-12T23:01:52.069Z,5.83
2022-08-12T23:04:27.666Z,8.00
2022-08-12T23:07:05.582Z,7.53
2022-08-12T23:09:48.109Z,7.23
2022-08-12T23:12:41.187Z,7.60
2022-08-12T23:15:14.204Z,6.77
2022-08-12T23:17:42.673Z,9.27
2022-08-12T23:20:13.027Z,8.63
2022-08-12T23:22:41.183Z,6.80
2022-08-12T23:25:20.886Z,11.60
2022-08-12T23:28:30.168Z,8.57
2022-08-12T23:31:04.240Z,6.23
2022-08-12T23:34:00.708Z,13.60
2022-08-12T23:36:31.595Z,8.90
2022-08-12T23:40:13.371Z,6.50
2022-08-12T23:42:17.610Z,8.00
2022-08-12T23:44:52.452Z,6.43
2022-08-12T23:47:22.709Z,7.87
2022-08-12T23:49:57.358Z,6.57
2022-08-12T23:52:28.450Z,6.33
2022-08-12T23:55:23.602Z,6.53
2022-08-12T23:58:21.340Z,6.10
